createdAt,value
2024-03-02T00:01:38.002Z,8.63
2024-03-02T00:04:07.936Z,9.93
2024-03-02T00:06:35.851Z,8.53
2024-03-02T00:09:03.678Z,8.43
2024-03-02T00:11:30.782Z,9.53
2024-03-02T00:13:57.983Z,9.17
2024-03-02T00:16:25.602Z,10.17
2024-03-02T00:18:52.699Z,8.50
2024-03-02T00:21:23.524Z,10.57
2024-03-02T00:23:53.505Z,7.73
2024-03-02T00:26:20.593Z,8.90
2024-03-02T00:28:47.551Z,10.13
2024-03-02T00:31:15.395Z,9.57
2024-03-02T00:33:49.531Z,9.17
2024-03-02T00:36:22.673Z,9.23
2024-03-02T00:38:54.908Z,8.73
2024-03-02T00:41:34.364Z,9.80
2024-03-02T00:44:06.935Z,11.10
2024-03-02T00:46:35.151Z,10.53
2024-03-02T00:49:06.887Z,8.53
2024-03-02T00:51:36.044Z,8.70
2024-03-02T00:54:07.501Z,9.30
2024-03-02T00:56:36.357Z,10.70
2024-03-02T00:59:03.648Z,8.60
2024-03-02T01:01:30.598Z,9.10
2024-03-02T01:03:57.804Z,8.93
2024-03-02T01:06:24.885Z,9.13
2024-03-02T01:08:52.890Z,7.77
2024-03-02T01:11:24.002Z,8.40
2024-03-02T01:13:51.864Z,9.07
2024-03-02T01:16:18.775Z,7.77
2024-03-02T01:18:46.662Z,8.63
2024-03-02T01:21:13.562Z,8.07
2024-03-02T01:23:40.446Z,8.87
2024-03-02T01:26:07.904Z,7.77
2024-03-02T01:28:34.773Z,8.73
2024-03-02T01:31:03.217Z,7.93
2024-03-02T01:33:30.485Z,7.77
2024-03-02T01:35:57.383Z,9.23
2024-03-02T01:38:24.209Z,8.57
2024-03-02T01:40:51.338Z,10.40
2024-03-02T01:43:18.169Z,7.57
2024-03-02T01:45:45.155Z,7.03
2024-03-02T01:48:12.331Z,8.90
2024-03-02T01:50:39.321Z,9.70
2024-03-02T01:53:06.342Z,8.83
2024-03-02T01:55:34.440Z,9.47
2024-03-02T01:58:02.097Z,8.20
2024-03-02T02:00:29.465Z,8.93
2024-03-02T02:02:56.576Z,9.20
2024-03-02T02:05:23.788Z,10.30
2024-03-02T02:07:51.028Z,8.00
2024-03-02T02:10:18.245Z,8.47
2024-03-02T02:12:45.188Z,7.83
2024-03-02T02:15:29.042Z,7.07
2024-03-02T02:17:56.962Z,9.67
2024-03-02T02:20:24.537Z,8.83
2024-03-02T02:22:56.769Z,6.87
2024-03-02T02:25:23.622Z,8.97
2024-03-02T02:27:50.793Z,7.43
2024-03-02T02:30:26.146Z,6.80
2024-03-02T02:32:53.489Z,8.73
2024-03-02T02:35:20.431Z,8.13
2024-03-02T02:37:48.352Z,6.77
2024-03-02T02:40:15.466Z,8.10
2024-03-02T02:42:42.324Z,8.37
2024-03-02T02:45:09.661Z,8.17
2024-03-02T02:47:36.568Z,7.77
2024-03-02T02:50:09.155Z,8.20
2024-03-02T02:52:37.903Z,7.53
2024-03-02T02:55:05.616Z,7.33
2024-03-02T02:57:37.727Z,9.83
2024-03-02T03:00:11.131Z,8.57
2024-03-02T03:02:39.744Z,9.37
2024-03-02T03:05:07.695Z,7.97
2024-03-02T03:07:38.045Z,7.43
2024-03-02T03:10:05.885Z,9.07
2024-03-02T03:12:32.767Z,9.07
2024-03-02T03:15:00.797Z,8.60
2024-03-02T03:17:28.627Z,9.03
2024-03-02T03:19:56.145Z,10.10
2024-03-02T03:22:23.171Z,8.40
2024-03-02T03:24:50.290Z,9.90
2024-03-02T03:27:17.065Z,8.73
2024-03-02T03:29:43.936Z,8.40
2024-03-02T03:32:10.983Z,10.53
2024-03-02T03:34:37.930Z,11.97
2024-03-02T03:37:05.054Z,9.17
2024-03-02T03:39:32.024Z,9.83
2024-03-02T03:41:58.891Z,9.63
2024-03-02T03:44:25.664Z,12.20
2024-03-02T03:46:52.708Z,9.77
2024-03-02T03:49:19.607Z,12.50
2024-03-02T03:51:46.435Z,10.43
2024-03-02T03:54:13.534Z,11.13
2024-03-02T03:56:40.275Z,12.00
2024-03-02T03:59:07.026Z,10.80
2024-03-02T04:01:35.084Z,12.37
2024-03-02T04:04:04.661Z,11.30
2024-03-02T04:06:31.770Z,9.87
2024-03-02T04:08:58.727Z,11.60
2024-03-02T04:11:25.687Z,12.37
2024-03-02T04:13:53.311Z,11.10
2024-03-02T04:16:21.172Z,12.03
2024-03-02T04:18:48.037Z,13.23
2024-03-02T04:21:14.915Z,13.27
2024-03-02T04:23:42.060Z,13.13
2024-03-02T04:26:08.873Z,12.37
2024-03-02T04:28:35.734Z,11.43
2024-03-02T04:31:02.758Z,12.17
2024-03-02T04:33:29.707Z,12.87
2024-03-02T04:35:56.591Z,14.63
2024-03-02T04:38:24.091Z,12.27
2024-03-02T04:40:51.022Z,16.37
2024-03-02T04:43:17.887Z,13.40
2024-03-02T04:45:45.116Z,13.40
2024-03-02T04:48:12.419Z,12.87
2024-03-02T04:50:39.241Z,11.97
2024-03-02T04:53:06.247Z,12.00
2024-03-02T04:55:35.689Z,12.40
2024-03-02T04:58:02.675Z,12.80
2024-03-02T05:00:29.729Z,12.20
2024-03-02T05:02:56.664Z,12.47
2024-03-02T05:05:23.702Z,13.33
2024-03-02T05:07:50.836Z,13.63
2024-03-02T05:10:17.757Z,13.77
2024-03-02T05:12:44.743Z,14.13
2024-03-02T05:15:14.029Z,14.80
2024-03-02T05:17:43.704Z,15.83
2024-03-02T05:20:10.948Z,14.13
2024-03-02T05:22:38.876Z,14.53
2024-03-02T05:25:07.709Z,13.20
2024-03-02T05:27:34.857Z,16.40
2024-03-02T05:30:01.978Z,14.53
2024-03-02T05:32:29.151Z,14.00
2024-03-02T05:34:56.227Z,15.20
2024-03-02T05:37:23.302Z,15.43
2024-03-02T05:39:50.573Z,15.90
2024-03-02T05:42:20.680Z,15.03
2024-03-02T05:44:47.793Z,16.37
2024-03-02T05:47:14.949Z,16.03
2024-03-02T05:49:41.908Z,17.10
2024-03-02T05:52:08.709Z,14.90
2024-03-02T05:54:35.535Z,13.63
2024-03-02T05:57:18.469Z,14.40
2024-03-02T05:59:45.653Z,14.00
2024-03-02T06:02:12.541Z,13.73
2024-03-02T06:04:39.619Z,13.47
2024-03-02T06:07:06.699Z,14.73
2024-03-02T06:09:33.626Z,14.77
2024-03-02T06:12:00.767Z,16.10
2024-03-02T06:14:27.598Z,14.87
2024-03-02T06:16:54.346Z,13.67
2024-03-02T06:19:21.620Z,15.87
2024-03-02T06:21:48.512Z,15.13
2024-03-02T06:24:15.379Z,14.63
2024-03-02T06:26:42.736Z,15.93
2024-03-02T06:29:09.503Z,14.43
2024-03-02T06:31:36.387Z,15.50
2024-03-02T06:34:05.029Z,16.27
2024-03-02T06:36:32.268Z,15.83
2024-03-02T06:38:59.023Z,14.47
2024-03-02T06:41:25.990Z,14.30
2024-03-02T06:44:00.312Z,14.93
2024-03-02T06:46:27.694Z,12.60
2024-03-02T06:48:54.593Z,15.37
2024-03-02T06:51:21.593Z,16.20
2024-03-02T06:53:48.740Z,13.43
2024-03-02T06:56:15.538Z,14.23
2024-03-02T06:58:43.996Z,15.90
2024-03-02T07:01:11.339Z,13.93
2024-03-02T07:03:38.350Z,13.87
2024-03-02T07:06:05.778Z,14.77
2024-03-02T07:08:35.550Z,15.50
2024-03-02T07:11:02.430Z,15.73
2024-03-02T07:13:29.408Z,14.10
2024-03-02T07:16:05.276Z,17.67
2024-03-02T07:18:32.294Z,14.80
2024-03-02T07:21:00.565Z,13.80
2024-03-02T07:23:28.731Z,14.97
2024-03-02T07:28:28.362Z,13.90
2024-03-02T07:31:02.648Z,15.57
2024-03-02T07:33:29.933Z,13.97
2024-03-02T07:35:57.167Z,13.33
2024-03-02T07:38:24.587Z,15.67
2024-03-02T07:40:54.491Z,14.70
2024-03-02T07:43:21.420Z,14.30
2024-03-02T07:45:49.337Z,16.07
2024-03-02T07:48:16.505Z,14.73
2024-03-02T07:50:44.221Z,16.63
2024-03-02T07:53:11.312Z,13.37
2024-03-02T07:55:38.184Z,15.67
2024-03-02T07:58:05.170Z,15.47
2024-03-02T08:00:35.095Z,14.03
2024-03-02T08:03:02.437Z,14.20
2024-03-02T08:05:29.308Z,13.33
2024-03-02T08:07:56.562Z,14.27
2024-03-02T08:10:23.320Z,14.27
2024-03-02T08:12:50.199Z,12.50
2024-03-02T08:15:17.400Z,14.77
2024-03-02T08:17:46.495Z,12.27
2024-03-02T08:20:13.675Z,12.00
2024-03-02T08:22:41.692Z,10.50
2024-03-02T08:25:09.568Z,14.20
2024-03-02T08:27:37.446Z,13.20
2024-03-02T08:30:08.291Z,10.70
2024-03-02T08:32:35.839Z,11.77
2024-03-02T08:35:02.905Z,11.93
2024-03-02T08:37:30.126Z,9.87
2024-03-02T08:39:57.077Z,12.40
2024-03-02T08:42:24.164Z,11.73
2024-03-02T08:44:51.524Z,9.33
2024-03-02T08:47:18.611Z,11.20
2024-03-02T08:49:45.461Z,9.67
2024-03-02T08:52:12.537Z,9.03
2024-03-02T08:54:39.659Z,8.37
2024-03-02T08:57:07.198Z,12.10
2024-03-02T08:59:34.727Z,8.13
2024-03-02T09:02:01.672Z,9.00
2024-03-02T09:04:31.691Z,10.33
2024-03-02T09:07:00.987Z,7.60
2024-03-02T09:09:27.990Z,9.30
2024-03-02T09:11:56.264Z,9.13
2024-03-02T09:14:23.547Z,7.30
2024-03-02T09:16:50.317Z,9.00
2024-03-02T09:19:17.670Z,9.17
2024-03-02T09:21:45.395Z,7.57
2024-03-02T09:24:14.225Z,7.83
2024-03-02T09:26:42.248Z,8.13
2024-03-02T09:29:09.197Z,6.70
2024-03-02T09:31:41.978Z,6.17
2024-03-02T09:34:09.140Z,6.13
2024-03-02T09:36:35.971Z,5.83
2024-03-02T09:39:05.051Z,6.37
2024-03-02T09:41:34.224Z,5.07
2024-03-02T09:44:01.733Z,5.87
2024-03-02T09:46:28.745Z,5.50
2024-03-02T09:48:55.972Z,4.60
2024-03-02T09:51:23.468Z,6.30
2024-03-02T09:53:51.077Z,6.27
2024-03-02T09:56:19.445Z,6.90
2024-03-02T09:58:46.472Z,8.77
2024-03-02T10:01:13.517Z,6.30
2024-03-02T10:03:43.016Z,7.20
2024-03-02T10:06:25.979Z,8.47
2024-03-02T10:08:53.888Z,8.40
2024-03-02T10:11:32.321Z,9.70
2024-03-02T10:14:09.400Z,7.03
2024-03-02T10:16:40.710Z,6.90
2024-03-02T10:19:19.096Z,10.00
2024-03-02T10:21:56.022Z,7.27
2024-03-02T10:24:24.087Z,6.33
2024-03-02T10:26:51.686Z,6.37
2024-03-02T10:29:19.131Z,8.97
2024-03-02T10:31:47.876Z,8.17
2024-03-02T10:34:15.429Z,7.27
2024-03-02T10:36:44.013Z,10.73
2024-03-02T10:39:11.215Z,6.73
2024-03-02T10:41:39.259Z,7.27
2024-03-02T10:44:07.998Z,21.40
2024-03-02T10:46:36.663Z,7.07
2024-03-02T10:49:08.067Z,6.13
2024-03-02T10:51:38.160Z,8.17
2024-03-02T10:54:06.015Z,8.97
2024-03-02T10:56:47.991Z,6.43
2024-03-02T10:59:34.051Z,6.87
2024-03-02T11:02:05.655Z,7.17
2024-03-02T11:04:35.924Z,4.83
2024-03-02T11:07:13.536Z,5.30
2024-03-02T11:09:43.064Z,4.97
2024-03-02T11:12:30.047Z,3.63
2024-03-02T11:14:57.705Z,4.97
2024-03-02T11:17:25.237Z,4.03
2024-03-02T11:19:52.763Z,7.30
2024-03-02T11:22:20.456Z,5.13
2024-03-02T11:24:52.458Z,5.37
2024-03-02T11:27:47.719Z,5.30
2024-03-02T11:30:33.262Z,5.03
2024-03-02T11:33:00.868Z,6.03
2024-03-02T11:35:31.577Z,4.30
2024-03-02T11:38:00.243Z,5.33
2024-03-02T11:40:27.138Z,4.80
2024-03-02T11:42:54.424Z,7.97
2024-03-02T11:45:44.430Z,6.90
2024-03-02T11:48:14.980Z,6.07
2024-03-02T11:50:47.649Z,7.23
2024-03-02T11:53:14.988Z,5.50
2024-03-02T11:55:42.092Z,5.73
2024-03-02T11:58:09.175Z,4.93
2024-03-02T12:00:36.582Z,7.00
2024-03-02T12:03:06.359Z,5.77
2024-03-02T12:05:33.857Z,6.83
2024-03-02T12:08:02.157Z,5.47
2024-03-02T12:10:29.329Z,6.50
2024-03-02T12:12:59.532Z,8.00
2024-03-02T12:15:34.380Z,7.83
2024-03-02T12:18:02.838Z,8.23
2024-03-02T12:20:32.860Z,6.90
2024-03-02T12:23:01.226Z,5.77
2024-03-02T12:25:29.313Z,6.83
2024-03-02T12:27:57.644Z,5.60
2024-03-02T12:30:25.080Z,4.70
2024-03-02T12:32:52.250Z,6.63
2024-03-02T12:35:19.991Z,5.10
2024-03-02T12:37:51.389Z,5.83
2024-03-02T12:40:20.266Z,5.20
2024-03-02T12:42:47.929Z,5.00
2024-03-02T12:45:15.304Z,5.13
2024-03-02T12:47:44.052Z,4.77
2024-03-02T12:50:11.514Z,4.70
2024-03-02T12:52:38.634Z,5.37
2024-03-02T12:55:08.781Z,5.10
2024-03-02T12:57:35.810Z,8.03
2024-03-02T13:03:02.922Z,5.20
2024-03-02T13:05:33.723Z,8.63
2024-03-02T13:08:01.763Z,4.40
2024-03-02T13:10:28.931Z,3.60
2024-03-02T13:12:57.302Z,4.70
2024-03-02T13:15:24.328Z,3.03
2024-03-02T13:17:52.095Z,2.87
2024-03-02T13:20:20.746Z,3.40
2024-03-02T13:22:48.212Z,3.57
2024-03-02T13:25:15.968Z,3.63
2024-03-02T13:27:43.075Z,2.93
2024-03-02T13:30:10.583Z,5.50
2024-03-02T13:32:38.011Z,3.47
2024-03-02T13:35:05.395Z,4.53
2024-03-02T13:37:33.852Z,3.33
2024-03-02T13:40:01.018Z,4.97
2024-03-02T13:42:28.704Z,5.60
2024-03-02T13:44:55.853Z,5.13
2024-03-02T13:47:22.835Z,3.33
2024-03-02T13:49:50.265Z,4.60
2024-03-02T13:52:21.504Z,3.93
2024-03-02T13:54:49.226Z,3.17
2024-03-02T13:57:16.366Z,3.63
2024-03-02T13:59:44.748Z,5.00
2024-03-02T14:02:13.800Z,3.93
2024-03-02T14:04:41.186Z,3.33
2024-03-02T14:07:08.682Z,2.93
2024-03-02T14:09:36.303Z,4.17
2024-03-02T14:12:04.331Z,3.20
2024-03-02T14:14:31.187Z,6.53
2024-03-02T14:17:01.848Z,4.50
2024-03-02T14:19:28.738Z,5.37
2024-03-02T14:21:55.561Z,3.30
2024-03-02T14:24:25.396Z,2.83
2024-03-02T14:26:54.868Z,3.53
2024-03-02T14:29:23.301Z,2.80
2024-03-02T14:31:50.352Z,3.67
2024-03-02T14:34:17.375Z,3.03
2024-03-02T14:36:45.249Z,2.63
2024-03-02T14:39:12.800Z,2.60
2024-03-02T14:41:40.398Z,3.37
2024-03-02T14:44:07.521Z,3.20
2024-03-02T14:46:35.034Z,5.40
2024-03-02T14:49:02.014Z,3.13
2024-03-02T14:51:31.208Z,2.63
2024-03-02T14:53:58.316Z,2.40
2024-03-02T14:56:25.126Z,2.23
2024-03-02T14:58:52.186Z,3.20
2024-03-02T15:01:19.392Z,2.40
2024-03-02T15:03:46.645Z,2.87
2024-03-02T15:06:13.606Z,2.80
2024-03-02T15:08:42.601Z,3.03
2024-03-02T15:11:10.296Z,2.13
2024-03-02T15:13:37.830Z,2.07
2024-03-02T15:16:05.254Z,3.00
2024-03-02T15:18:32.168Z,2.60
2024-03-02T15:20:58.955Z,3.53
2024-03-02T15:23:25.950Z,2.87
2024-03-02T15:25:52.962Z,2.20
2024-03-02T15:28:19.821Z,1.97
2024-03-02T15:30:47.174Z,2.67
2024-03-02T15:33:14.141Z,11.13
2024-03-02T15:35:41.388Z,1.53
2024-03-02T15:38:18.214Z,3.47
2024-03-02T15:40:51.735Z,2.73
2024-03-02T15:43:18.752Z,1.90
2024-03-02T15:45:45.522Z,2.33
2024-03-02T15:48:12.632Z,3.53
2024-03-02T15:50:39.737Z,2.57
2024-03-02T15:53:07.641Z,3.33
2024-03-02T15:55:37.231Z,2.37
2024-03-02T15:58:06.772Z,2.40
2024-03-02T16:00:33.817Z,2.23
2024-03-02T16:03:00.654Z,2.10
2024-03-02T16:05:27.659Z,3.63
2024-03-02T16:07:54.434Z,3.67
2024-03-02T16:10:21.438Z,4.83
2024-03-02T16:12:48.416Z,3.77
2024-03-02T16:15:15.578Z,5.30
2024-03-02T16:17:42.604Z,4.07
2024-03-02T16:20:11.347Z,3.57
2024-03-02T16:22:38.265Z,6.63
2024-03-02T16:25:06.063Z,4.10
2024-03-02T16:27:33.526Z,4.23
2024-03-02T16:30:00.817Z,4.60
2024-03-02T16:32:27.576Z,4.90
2024-03-02T16:34:54.942Z,3.83
2024-03-02T16:37:21.885Z,4.13
2024-03-02T16:39:49.706Z,4.13
2024-03-02T16:42:16.757Z,3.97
2024-03-02T16:44:43.923Z,7.30
2024-03-02T16:47:13.080Z,4.83
2024-03-02T16:49:40.911Z,3.47
2024-03-02T16:52:07.695Z,4.17
2024-03-02T16:54:34.502Z,4.77
2024-03-02T16:57:01.542Z,6.10
2024-03-02T16:59:28.423Z,5.00
2024-03-02T17:01:55.438Z,3.40
2024-03-02T17:04:25.050Z,5.40
2024-03-02T17:06:52.160Z,4.27
2024-03-02T17:09:19.060Z,3.70
2024-03-02T17:11:46.039Z,6.13
2024-03-02T17:14:12.928Z,3.90
2024-03-02T17:16:40.061Z,5.03
2024-03-02T17:19:07.196Z,4.93
2024-03-02T17:21:34.195Z,5.43
2024-03-02T17:24:03.612Z,4.77
2024-03-02T17:26:31.148Z,3.57
2024-03-02T17:28:58.006Z,4.53
2024-03-02T17:31:24.904Z,6.40
2024-03-02T17:33:52.044Z,4.70
2024-03-02T17:36:18.844Z,6.10
2024-03-02T17:38:45.654Z,5.93
2024-03-02T17:41:12.654Z,5.33
2024-03-02T17:43:40.340Z,6.43
2024-03-02T17:46:07.447Z,4.63
2024-03-02T17:48:34.697Z,4.27
2024-03-02T17:51:01.488Z,5.33
2024-03-02T17:53:28.320Z,6.37
2024-03-02T17:55:55.474Z,4.33
2024-03-02T17:58:22.338Z,3.93
2024-03-02T18:00:49.284Z,4.03
2024-03-02T18:03:16.245Z,3.73
2024-03-02T18:05:43.154Z,4.27
2024-03-02T18:08:10.070Z,5.20
2024-03-02T18:10:37.172Z,5.37
2024-03-02T18:13:04.495Z,5.27
2024-03-02T18:15:31.440Z,4.60
2024-03-02T18:17:58.509Z,5.03
2024-03-02T18:20:25.312Z,7.33
2024-03-02T18:22:52.288Z,6.60
2024-03-02T18:25:19.320Z,4.47
2024-03-02T18:27:46.461Z,5.17
2024-03-02T18:30:13.647Z,5.20
2024-03-02T18:32:40.777Z,5.90
2024-03-02T18:35:09.554Z,5.33
2024-03-02T18:37:39.487Z,6.70
2024-03-02T18:40:07.118Z,4.53
2024-03-02T18:42:34.437Z,4.20
2024-03-02T18:45:06.077Z,6.23
2024-03-02T18:47:33.454Z,6.17
2024-03-02T18:50:02.110Z,9.60
2024-03-02T18:52:28.958Z,6.80
2024-03-02T18:54:55.995Z,6.07
2024-03-02T18:57:22.802Z,6.83
2024-03-02T18:59:49.631Z,7.73
2024-03-02T19:02:16.582Z,9.57
2024-03-02T19:04:43.339Z,9.30
2024-03-02T19:07:11.643Z,6.47
2024-03-02T19:09:38.786Z,9.63
2024-03-02T19:12:06.277Z,8.47
2024-03-02T19:14:33.493Z,10.70
2024-03-02T19:17:00.616Z,7.10
2024-03-02T19:19:27.579Z,6.57
2024-03-02T19:22:02.253Z,6.13
2024-03-02T19:24:37.607Z,6.70
2024-03-02T19:27:05.768Z,7.10
2024-03-02T19:29:32.950Z,9.07
2024-03-02T19:32:05.158Z,6.27
2024-03-02T19:34:34.976Z,9.10
2024-03-02T19:37:02.146Z,5.43
2024-03-02T19:39:29.307Z,7.97
2024-03-02T19:41:56.523Z,6.33
2024-03-02T19:44:30.905Z,8.43
2024-03-02T19:46:57.879Z,7.87
2024-03-02T19:49:25.546Z,7.07
2024-03-02T19:51:52.708Z,9.13
2024-03-02T19:54:19.646Z,9.23
2024-03-02T19:56:46.685Z,8.37
2024-03-02T19:59:14.276Z,8.77
2024-03-02T20:01:41.579Z,10.37
2024-03-02T20:04:08.684Z,8.07
2024-03-02T20:06:35.842Z,7.90
2024-03-02T20:09:02.672Z,10.07
2024-03-02T20:11:33.156Z,9.40
2024-03-02T20:14:01.004Z,10.43
2024-03-02T20:16:28.052Z,9.27
2024-03-02T20:18:54.976Z,10.30
2024-03-02T20:21:22.087Z,10.70
2024-03-02T20:23:49.386Z,12.47
2024-03-02T20:26:18.840Z,13.00
2024-03-02T20:28:46.726Z,11.57
2024-03-02T20:31:15.365Z,11.73
2024-03-02T20:33:42.602Z,12.17
2024-03-02T20:36:16.655Z,12.47
2024-03-02T20:38:43.628Z,10.83
2024-03-02T20:41:21.017Z,8.80
2024-03-02T20:43:48.010Z,10.13
2024-03-02T20:46:15.876Z,11.63
2024-03-02T20:48:43.384Z,11.63
2024-03-02T20:51:10.426Z,10.17
2024-03-02T20:53:37.252Z,10.43
2024-03-02T20:56:04.864Z,9.87
2024-03-02T20:58:31.895Z,14.93
2024-03-02T21:00:58.931Z,10.43
2024-03-02T21:03:26.352Z,10.10
2024-03-02T21:05:53.238Z,10.13
2024-03-02T21:08:20.284Z,10.67
2024-03-02T21:10:49.836Z,19.07
2024-03-02T21:13:17.633Z,12.60
2024-03-02T21:15:45.000Z,12.80
2024-03-02T21:18:12.350Z,13.83
2024-03-02T21:20:39.259Z,15.90
2024-03-02T21:23:07.598Z,14.43
2024-03-02T21:25:36.889Z,12.63
2024-03-02T21:28:04.308Z,13.07
2024-03-02T21:30:32.013Z,14.47
2024-03-02T21:32:59.274Z,14.60
2024-03-02T21:35:28.239Z,16.10
2024-03-02T21:37:55.495Z,19.70
2024-03-02T21:40:22.796Z,20.10
2024-03-02T21:42:51.940Z,17.13
2024-03-02T21:45:19.162Z,15.00
2024-03-02T21:47:46.704Z,16.20
2024-03-02T21:50:13.592Z,17.13
2024-03-02T21:52:40.559Z,16.07
2024-03-02T21:55:10.097Z,18.07
2024-03-02T21:57:37.965Z,14.97
2024-03-02T22:00:05.579Z,15.93
2024-03-02T22:02:32.857Z,16.13
2024-03-02T22:04:59.777Z,14.60
2024-03-02T22:07:26.758Z,16.13
2024-03-02T22:09:54.317Z,16.37
2024-03-02T22:12:21.268Z,14.87
2024-03-02T22:14:48.255Z,16.27
2024-03-02T22:17:15.476Z,16.57
2024-03-02T22:19:42.715Z,15.00
2024-03-02T22:22:09.845Z,19.37
2024-03-02T22:24:37.096Z,15.30
2024-03-02T22:27:04.118Z,13.97
2024-03-02T22:29:31.070Z,12.27
2024-03-02T22:31:58.137Z,14.27
2024-03-02T22:34:25.055Z,16.17
2024-03-02T22:36:52.066Z,13.90
2024-03-02T22:39:19.020Z,15.53
2024-03-02T22:41:46.280Z,15.43
2024-03-02T22:44:13.157Z,15.37
2024-03-02T22:46:40.185Z,17.23
2024-03-02T22:49:07.088Z,14.90
2024-03-02T22:51:34.055Z,14.90
2024-03-02T22:54:01.125Z,14.23
2024-03-02T22:56:27.869Z,14.33
2024-03-02T22:58:55.289Z,20.10
2024-03-02T23:01:23.699Z,14.23
2024-03-02T23:03:50.779Z,16.20
2024-03-02T23:06:20.780Z,13.53
2024-03-02T23:08:47.654Z,13.90
2024-03-02T23:11:14.580Z,13.67
2024-03-02T23:13:41.764Z,15.37
2024-03-02T23:16:09.834Z,16.67
2024-03-02T23:18:36.846Z,12.63
2024-03-02T23:21:04.226Z,15.43
2024-03-02T23:23:30.970Z,15.17
2024-03-02T23:25:57.897Z,14.33
2024-03-02T23:28:24.988Z,13.03
2024-03-02T23:30:51.893Z,12.53
2024-03-02T23:33:18.893Z,17.83
2024-03-02T23:35:46.297Z,14.30
2024-03-02T23:38:14.115Z,13.13
2024-03-02T23:40:59.649Z,14.73
2024-03-02T23:43:26.411Z,13.40
2024-03-02T23:45:53.770Z,15.37
2024-03-02T23:48:20.794Z,15.77
2024-03-02T23:50:47.555Z,15.70
2024-03-02T23:53:14.435Z,14.33
2024-03-02T23:55:47.749Z,13.37
2024-03-02T23:58:19.291Z,16.30
